Terminal Aerodrome Forecast
Issued by NWS North Platte, NE

Home | Current Version | Previous Version | Graphics & Text | Print | Product List | Glossary On
Versions: 1 2 3 4 5 6 7 8 9 10 11 12 13 14 15 16 17 18 19
852
FTUS43 KLBF 261136
TAFVTN
TAF
KVTN 261136Z 2612/2712 VRB05KT P6SM SCT250
     FM261800 12005KT P6SM SCT120 BKN150
     FM262100 09007KT P6SM SCT050 BKN100
      TEMPO 2621/2624 P6SM TS BKN050CB
     FM270400 06009KT P6SM VCSH BKN050
     FM271000 VRB02KT P6SM BKN250=

USA.gov is the U.S. government's official web portal to all federal, state and local government web resources and services.